Time;durP1;ratioP1;P1;durP2;ratioP2;P2;SDS_P1;SDS_P2;PMS_P1;PMS_P2;Temp;Humidity;BMP_temperature;BMP_pressure;BME280_temperature;BME280_humidity;BME280_pressure;Samples;Min_cycle;Max_cycle;Signal;HPM_P1;HPM_P2
2023/07/03 00:00:14;;;;;;;6.17;4.67;;;15.40;99.90;;;;;;5090806;28;20539;-69
2023/07/03 00:02:40;;;;;;;9.37;4.20;;;15.40;99.90;;;;;;5087788;28;20165;-69
2023/07/03 00:05:08;;;;;;;8.13;4.10;;;15.40;99.90;;;;;;5098926;28;20431;-69
2023/07/03 00:07:34;;;;;;;6.00;3.83;;;15.40;99.90;;;;;;5077496;28;20452;-69
2023/07/03 00:10:00;;;;;;;5.30;4.13;;;15.30;99.90;;;;;;5084495;28;20943;-69
2023/07/03 00:12:26;;;;;;;5.23;4.47;;;15.20;99.90;;;;;;5091276;28;20416;-68
2023/07/03 00:14:51;;;;;;;5.70;4.37;;;15.20;99.90;;;;;;5094969;28;20216;-68
2023/07/03 00:17:17;;;;;;;5.17;4.00;;;15.20;99.90;;;;;;5091626;28;20193;-67
2023/07/03 00:19:42;;;;;;;6.63;4.47;;;15.30;99.90;;;;;;5093819;28;20652;-68
2023/07/03 00:22:08;;;;;;;6.37;4.07;;;15.20;99.90;;;;;;5090460;28;20171;-70
2023/07/03 00:24:34;;;;;;;8.40;4.37;;;15.10;99.90;;;;;;5093213;28;20652;-67
2023/07/03 00:27:00;;;;;;;7.57;3.90;;;15.10;99.90;;;;;;5091445;28;20196;-67
2023/07/03 00:29:30;;;;;;;15.00;5.57;;;15.10;99.90;;;;;;5090639;28;20276;-67
2023/07/03 00:31:55;;;;;;;8.10;5.60;;;15.00;99.90;;;;;;5076409;28;20444;-68
2023/07/03 00:34:21;;;;;;;7.90;4.70;;;15.00;99.90;;;;;;5090879;28;20500;-68
2023/07/03 00:36:47;;;;;;;11.17;5.00;;;15.00;99.90;;;;;;5093514;28;20665;-69
2023/07/03 00:39:14;;;;;;;5.27;4.03;;;15.10;99.90;;;;;;5090191;28;20292;-67
2023/07/03 00:41:40;;;;;;;10.80;4.37;;;15.10;99.90;;;;;;5092824;28;20423;-70
2023/07/03 00:44:14;;;;;;;7.60;5.33;;;15.00;99.90;;;;;;5090010;28;20757;-67
2023/07/03 00:46:42;;;;;;;4.67;3.87;;;15.00;99.90;;;;;;5088885;28;20453;-67
2023/07/03 00:49:09;;;;;;;7.23;4.30;;;14.90;99.90;;;;;;5093969;28;20511;-67
2023/07/03 00:51:37;;;;;;;8.13;4.40;;;14.80;99.90;;;;;;5073029;28;20427;-67
2023/07/03 00:54:02;;;;;;;7.23;4.20;;;14.80;99.90;;;;;;5086269;28;20404;-67
2023/07/03 00:56:28;;;;;;;8.77;4.20;;;14.80;99.90;;;;;;5071619;28;20940;-68
2023/07/03 00:58:54;;;;;;;8.73;4.13;;;14.70;99.90;;;;;;5091884;28;20280;-67
2023/07/03 01:01:34;;;;;;;8.90;5.30;;;14.70;99.90;;;;;;5114711;22;20219;-70
2023/07/03 01:04:11;;;;;;;8.37;4.50;;;14.70;99.90;;;;;;5094361;28;20219;-69
2023/07/03 01:06:44;;;;;;;6.57;5.43;;;14.70;99.90;;;;;;5094383;28;20443;-69
2023/07/03 01:09:12;;;;;;;7.30;3.80;;;14.70;99.90;;;;;;5085010;28;20399;-71
2023/07/03 01:11:38;;;;;;;6.80;4.40;;;14.70;99.90;;;;;;5089035;28;20431;-70
2023/07/03 01:14:06;;;;;;;7.63;4.40;;;14.70;99.90;;;;;;5094371;28;20777;-69
2023/07/03 01:16:33;;;;;;;5.80;4.73;;;14.70;99.90;;;;;;5089486;28;20438;-70
2023/07/03 01:19:00;;;;;;;7.80;5.33;;;14.80;99.90;;;;;;5091467;28;20422;-71
2023/07/03 01:21:36;;;;;;;5.23;4.30;;;14.80;99.90;;;;;;5088009;28;20436;-70
2023/07/03 01:24:11;;;;;;;5.20;4.43;;;14.80;99.90;;;;;;5084600;28;20407;-70
2023/07/03 01:26:39;;;;;;;5.90;4.50;;;14.80;99.90;;;;;;5086638;28;20481;-70
2023/07/03 01:29:06;;;;;;;7.57;4.63;;;14.90;99.90;;;;;;5089336;28;20411;-71
2023/07/03 01:31:35;;;;;;;7.33;4.80;;;14.90;99.90;;;;;;5091933;28;20549;-70
2023/07/03 01:34:02;;;;;;;8.90;4.70;;;14.90;99.90;;;;;;5084132;28;20730;-69
2023/07/03 01:36:30;;;;;;;7.17;4.63;;;14.90;99.90;;;;;;5090694;28;20412;-69
2023/07/03 01:38:58;;;;;;;8.90;6.00;;;14.90;99.90;;;;;;5086017;28;20511;-69
2023/07/03 01:41:24;;;;;;;7.50;5.07;;;15.00;99.90;;;;;;5089385;28;20473;-69
2023/07/03 01:43:50;;;;;;;9.60;4.63;;;15.10;99.90;;;;;;5091576;28;20487;-70
2023/07/03 01:46:16;;;;;;;6.90;5.50;;;15.20;99.90;;;;;;5088189;28;20455;-72
2023/07/03 01:48:42;;;;;;;14.87;5.00;;;15.20;99.90;;;;;;5090336;28;20834;-70
2023/07/03 01:51:11;;;;;;;7.70;5.07;;;15.20;99.90;;;;;;5087089;28;20424;-70
2023/07/03 01:53:49;;;;;;;9.03;4.43;;;15.30;99.90;;;;;;5089831;28;20170;-69
2023/07/03 01:56:25;;;;;;;12.73;5.43;;;15.40;99.90;;;;;;5085314;28;20768;-70
2023/07/03 01:58:56;;;;;;;8.50;4.53;;;15.40;99.90;;;;;;5088437;28;20404;-70
2023/07/03 02:01:33;;;;;;;6.77;4.30;;;15.50;99.90;;;;;;5091693;28;20444;-70
2023/07/03 02:04:09;;;;;;;7.67;4.43;;;15.60;99.90;;;;;;5086739;28;20508;-70
2023/07/03 02:06:41;;;;;;;8.30;5.20;;;15.60;99.90;;;;;;5092502;28;21019;-69
2023/07/03 02:09:08;;;;;;;9.63;4.70;;;15.60;99.90;;;;;;5086164;28;20739;-70
2023/07/03 02:11:35;;;;;;;9.27;5.90;;;15.60;99.90;;;;;;5090820;28;20473;-70
2023/07/03 02:14:00;;;;;;;8.00;4.60;;;15.60;99.90;;;;;;5085839;28;20400;-69
2023/07/03 02:16:29;;;;;;;7.87;4.77;;;15.60;99.90;;;;;;5090190;28;20473;-70
2023/07/03 02:18:55;;;;;;;7.30;5.33;;;15.60;99.90;;;;;;5088623;28;20206;-70
2023/07/03 02:21:21;;;;;;;9.73;4.43;;;15.60;99.90;;;;;;5087480;28;20481;-69
2023/07/03 02:23:47;;;;;;;12.53;4.90;;;15.60;99.90;;;;;;5089136;28;20408;-69
2023/07/03 02:26:14;;;;;;;8.50;4.67;;;15.70;99.90;;;;;;5090502;28;20974;-70
2023/07/03 02:28:40;;;;;;;8.23;5.53;;;15.70;99.90;;;;;;5091448;28;20455;-70
2023/07/03 02:31:06;;;;;;;9.03;4.47;;;15.70;99.90;;;;;;5087138;28;20443;-69
2023/07/03 02:33:32;;;;;;;9.00;5.30;;;15.70;99.90;;;;;;5085193;28;20774;-71
2023/07/03 02:36:01;;;;;;;9.40;5.00;;;15.80;99.90;;;;;;5087398;28;20182;-70
2023/07/03 02:38:27;;;;;;;8.83;5.90;;;15.80;99.90;;;;;;5086578;28;20582;-69
2023/07/03 02:40:52;;;;;;;9.57;4.90;;;15.80;99.90;;;;;;5090231;28;21030;-70
2023/07/03 02:43:18;;;;;;;8.13;5.33;;;15.80;99.90;;;;;;5086952;28;20180;-70
2023/07/03 02:45:44;;;;;;;10.90;6.00;;;15.80;99.90;;;;;;5071172;28;20696;-70
2023/07/03 02:48:10;;;;;;;10.10;4.53;;;15.80;99.90;;;;;;5086140;28;20622;-71
2023/07/03 02:50:36;;;;;;;9.40;5.47;;;15.80;99.90;;;;;;5084710;28;20214;-70
2023/07/03 02:53:02;;;;;;;5.50;4.63;;;15.80;99.90;;;;;;5086839;28;20452;-70
2023/07/03 02:55:28;;;;;;;7.80;4.13;;;15.90;99.90;;;;;;5085586;28;20185;-69
2023/07/03 02:57:55;;;;;;;8.80;5.40;;;15.80;99.90;;;;;;5090041;28;20444;-69
2023/07/03 03:00:21;;;;;;;9.93;5.50;;;15.90;99.90;;;;;;5086480;28;20175;-70
2023/07/03 03:02:47;;;;;;;16.27;6.07;;;15.90;99.90;;;;;;5088994;28;20493;-69
2023/07/03 03:05:13;;;;;;;6.97;4.80;;;15.90;99.90;;;;;;5085346;28;20457;-70
2023/07/03 03:07:39;;;;;;;9.20;5.53;;;15.90;99.90;;;;;;5087745;28;20539;-70
2023/07/03 03:10:05;;;;;;;7.97;5.03;;;15.90;99.90;;;;;;5090597;28;20254;-69
2023/07/03 03:12:31;;;;;;;11.83;5.40;;;15.90;99.90;;;;;;5086849;28;20421;-70
2023/07/03 03:14:56;;;;;;;8.23;4.43;;;15.90;99.90;;;;;;5089306;28;20420;-70
2023/07/03 03:17:22;;;;;;;7.20;4.87;;;15.90;99.90;;;;;;5085886;28;20692;-70
2023/07/03 03:19:48;;;;;;;9.80;5.53;;;15.80;99.90;;;;;;5088398;28;20179;-70
2023/07/03 03:22:13;;;;;;;7.00;5.67;;;15.90;99.90;;;;;;5084863;28;20199;-70
2023/07/03 03:24:39;;;;;;;7.80;4.93;;;15.90;99.90;;;;;;5086400;28;20412;-70
2023/07/03 03:27:06;;;;;;;7.13;4.90;;;15.80;99.90;;;;;;5088822;28;20610;-70
2023/07/03 03:29:32;;;;;;;9.43;5.77;;;15.90;99.90;;;;;;5085749;28;20199;-69
2023/07/03 03:31:58;;;;;;;7.80;4.77;;;15.90;99.90;;;;;;5088063;28;20432;-70
2023/07/03 03:34:24;;;;;;;10.33;4.47;;;15.80;99.90;;;;;;5086184;28;20948;-70
2023/07/03 03:36:49;;;;;;;12.30;5.43;;;15.80;99.90;;;;;;5093962;28;20342;-69
2023/07/03 03:39:15;;;;;;;9.70;5.80;;;15.80;99.90;;;;;;5090351;28;20184;-70
2023/07/03 03:41:41;;;;;;;6.87;5.00;;;15.90;99.90;;;;;;5086498;28;20192;-70
2023/07/03 03:44:06;;;;;;;6.47;4.60;;;15.90;99.90;;;;;;5088588;28;20168;-70
2023/07/03 03:46:32;;;;;;;7.10;4.90;;;15.90;99.90;;;;;;5085693;28;20221;-70
2023/07/03 03:48:57;;;;;;;8.60;5.87;;;16.00;99.90;;;;;;5087577;28;20306;-70
2023/07/03 03:51:23;;;;;;;8.40;4.63;;;16.00;99.90;;;;;;5084286;28;20611;-70
2023/07/03 03:53:49;;;;;;;8.83;5.43;;;16.00;99.90;;;;;;5088581;28;20202;-70
2023/07/03 03:56:14;;;;;;;6.80;4.23;;;16.10;99.90;;;;;;5089469;28;20171;-69
2023/07/03 03:58:40;;;;;;;8.10;5.73;;;16.20;99.90;;;;;;5085721;28;20289;-68
2023/07/03 04:01:05;;;;;;;10.30;4.87;;;16.20;99.90;;;;;;5088004;28;20206;-70
2023/07/03 04:03:31;;;;;;;6.03;3.90;;;16.20;99.90;;;;;;5089879;28;20533;-69
2023/07/03 04:05:57;;;;;;;9.13;5.00;;;16.30;99.90;;;;;;5087432;28;20179;-69
2023/07/03 04:08:22;;;;;;;11.97;4.63;;;16.30;99.90;;;;;;5083980;28;20760;-70
2023/07/03 04:10:48;;;;;;;7.93;5.00;;;16.40;99.90;;;;;;5086393;28;20534;-69
2023/07/03 04:13:14;;;;;;;7.00;4.43;;;16.40;99.90;;;;;;5089274;28;20190;-69
2023/07/03 04:15:51;;;;;;;6.27;5.17;;;16.40;99.90;;;;;;5085397;28;20173;-69
2023/07/03 04:18:19;;;;;;;8.30;4.30;;;16.40;99.90;;;;;;5088364;28;20183;-69
2023/07/03 04:20:46;;;;;;;9.80;5.57;;;16.50;99.90;;;;;;5062328;28;20582;-69
2023/07/03 04:23:11;;;;;;;8.57;5.37;;;16.50;99.90;;;;;;5087355;28;20483;-68
2023/07/03 04:25:37;;;;;;;12.33;5.10;;;16.50;99.90;;;;;;5085384;28;20418;-69
2023/07/03 04:28:03;;;;;;;6.23;5.03;;;16.50;99.90;;;;;;5093413;28;20196;-70
2023/07/03 04:30:28;;;;;;;9.10;4.30;;;16.70;99.90;;;;;;5085593;28;20175;-70
2023/07/03 04:32:54;;;;;;;5.50;4.00;;;16.70;99.90;;;;;;5087115;28;20680;-70
2023/07/03 04:35:21;;;;;;;7.80;5.20;;;16.70;99.90;;;;;;5086757;28;20176;-70
2023/07/03 04:37:47;;;;;;;7.63;5.10;;;16.80;99.90;;;;;;5092657;28;20414;-70
2023/07/03 04:40:13;;;;;;;6.80;4.17;;;16.80;99.90;;;;;;5093487;28;20500;-70
2023/07/03 04:42:39;;;;;;;9.60;6.00;;;17.00;99.90;;;;;;5088681;28;20305;-70
2023/07/03 04:45:07;;;;;;;11.00;5.33;;;17.00;99.90;;;;;;5092118;28;20410;-70
2023/07/03 04:47:32;;;;;;;5.83;5.07;;;17.00;99.90;;;;;;5088597;28;20196;-69
2023/07/03 04:49:58;;;;;;;9.77;5.33;;;17.10;99.90;;;;;;5090538;28;20410;-70
2023/07/03 04:52:27;;;;;;;8.73;5.20;;;17.20;99.90;;;;;;5087478;28;20823;-70
2023/07/03 04:54:53;;;;;;;10.47;5.67;;;17.20;99.90;;;;;;5089354;28;20249;-69
2023/07/03 04:57:20;;;;;;;8.97;5.20;;;17.20;99.90;;;;;;5093369;28;20414;-70
2023/07/03 04:59:46;;;;;;;11.20;5.77;;;17.30;99.90;;;;;;5091677;28;20413;-69
2023/07/03 05:02:16;;;;;;;18.00;5.00;;;17.30;99.90;;;;;;5092472;28;20455;-70
2023/07/03 05:04:42;;;;;;;10.63;5.40;;;17.50;99.90;;;;;;5087157;28;20489;-69
2023/07/03 05:07:08;;;;;;;9.37;5.23;;;17.70;99.90;;;;;;5091532;28;20981;-69
2023/07/03 05:09:33;;;;;;;10.67;5.17;;;17.70;99.90;;;;;;5087370;28;20415;-70
2023/07/03 05:11:59;;;;;;;9.87;6.20;;;17.80;99.90;;;;;;5089680;28;20597;-70
2023/07/03 05:14:25;;;;;;;8.30;5.33;;;17.80;99.90;;;;;;5092609;28;20177;-70
2023/07/03 05:16:50;;;;;;;14.13;5.37;;;17.90;99.90;;;;;;5087573;28;20185;-70
2023/07/03 05:19:16;;;;;;;8.40;5.43;;;18.10;99.90;;;;;;5092328;28;20179;-70
2023/07/03 05:21:42;;;;;;;10.40;5.90;;;18.30;99.90;;;;;;5086648;28;20367;-70
2023/07/03 05:24:07;;;;;;;7.10;5.40;;;18.60;99.90;;;;;;5094105;28;20268;-70
2023/07/03 05:26:33;;;;;;;7.37;4.70;;;18.80;99.90;;;;;;5095095;28;20187;-71
2023/07/03 05:28:59;;;;;;;17.27;6.60;;;18.80;99.90;;;;;;5091334;28;20231;-71
2023/07/03 05:31:24;;;;;;;11.90;6.60;;;18.90;99.90;;;;;;5090278;28;20243;-71
2023/07/03 05:33:50;;;;;;;14.60;6.80;;;18.80;99.90;;;;;;5091144;28;20222;-71
2023/07/03 05:36:16;;;;;;;4.93;4.40;;;18.90;99.90;;;;;;5092960;28;20166;-70
2023/07/03 05:38:43;;;;;;;8.07;4.67;;;19.50;99.90;;;;;;5094485;28;20454;-71
2023/07/03 05:41:09;;;;;;;12.93;6.23;;;19.70;99.90;;;;;;5089006;28;20960;-70
2023/07/03 05:43:35;;;;;;;11.70;5.33;;;20.20;99.90;;;;;;5094811;28;20423;-70
2023/07/03 05:46:00;;;;;;;9.03;5.37;;;19.80;99.90;;;;;;5087927;28;20408;-70
2023/07/03 05:48:26;;;;;;;12.60;6.10;;;20.20;99.90;;;;;;5089437;28;20241;-70
2023/07/03 05:50:52;;;;;;;9.50;4.73;;;19.80;99.90;;;;;;5089299;28;20286;-70
2023/07/03 05:53:18;;;;;;;8.83;5.00;;;19.70;99.90;;;;;;5085692;28;20172;-69
2023/07/03 05:56:02;;;;;;;7.63;5.47;;;19.60;99.90;;;;;;5091414;28;20225;-70
2023/07/03 05:58:28;;;;;;;11.53;6.47;;;19.40;99.90;;;;;;5087935;28;20414;-70
2023/07/03 06:00:54;;;;;;;7.60;5.70;;;19.40;99.90;;;;;;5090176;28;20460;-70
2023/07/03 06:03:20;;;;;;;8.10;5.83;;;19.10;99.90;;;;;;5086946;28;20428;-70
2023/07/03 06:05:46;;;;;;;11.13;6.40;;;19.30;99.90;;;;;;5089849;28;20505;-71
2023/07/03 06:08:12;;;;;;;9.77;6.73;;;19.10;99.90;;;;;;5086538;28;20765;-71
2023/07/03 06:10:38;;;;;;;7.23;4.50;;;19.10;99.90;;;;;;5085506;28;20251;-72
2023/07/03 06:13:04;;;;;;;9.30;5.60;;;19.00;99.90;;;;;;5091226;28;20485;-71
2023/07/03 06:15:30;;;;;;;13.90;6.27;;;19.10;99.90;;;;;;5087434;28;20232;-70
2023/07/03 06:17:56;;;;;;;10.90;5.20;;;19.40;99.90;;;;;;5089725;28;20405;-70
2023/07/03 06:20:25;;;;;;;9.53;5.80;;;19.50;99.90;;;;;;5086439;28;20428;-70
2023/07/03 06:22:51;;;;;;;10.30;5.87;;;19.50;99.90;;;;;;5088607;28;20335;-72
2023/07/03 06:25:17;;;;;;;8.47;5.47;;;19.50;99.90;;;;;;5087315;28;20496;-71
2023/07/03 06:27:42;;;;;;;7.30;4.60;;;19.80;99.90;;;;;;5089969;28;20201;-70
2023/07/03 06:30:08;;;;;;;10.80;5.63;;;20.30;99.90;;;;;;5086470;28;20511;-70
2023/07/03 06:32:34;;;;;;;6.90;4.73;;;21.20;99.90;;;;;;5089737;28;20204;-70
2023/07/03 06:34:59;;;;;;;11.27;5.87;;;21.30;99.90;;;;;;5085852;28;20185;-69
2023/07/03 06:37:25;;;;;;;6.47;4.93;;;21.70;99.90;;;;;;5088144;28;20503;-70
2023/07/03 06:39:50;;;;;;;8.43;5.50;;;21.60;99.90;;;;;;5090445;28;20172;-70
2023/07/03 06:42:16;;;;;;;6.83;4.37;;;21.50;99.90;;;;;;5089167;28;20205;-70
2023/07/03 06:44:43;;;;;;;10.33;5.83;;;22.30;99.90;;;;;;5094980;28;20196;-70
2023/07/03 06:47:09;;;;;;;5.77;4.10;;;22.50;99.90;;;;;;5085981;28;20498;-71
2023/07/03 06:49:36;;;;;;;11.93;5.43;;;22.90;99.90;;;;;;5088234;28;20559;-71
2023/07/03 06:52:01;;;;;;;10.20;6.47;;;22.50;99.90;;;;;;5085007;28;20235;-70
2023/07/03 06:54:27;;;;;;;9.33;4.83;;;21.80;99.90;;;;;;5087360;28;20415;-70
2023/07/03 06:56:53;;;;;;;7.40;4.70;;;21.60;99.90;;;;;;5089263;28;20595;-70
2023/07/03 06:59:18;;;;;;;8.60;4.50;;;21.40;99.90;;;;;;5086533;28;20175;-71
2023/07/03 07:01:44;;;;;;;10.23;5.70;;;21.70;99.90;;;;;;5088877;28;20665;-69
2023/07/03 07:04:11;;;;;;;11.20;7.40;;;21.60;99.90;;;;;;5086060;28;20186;-71
2023/07/03 07:06:39;;;;;;;13.87;4.70;;;21.40;99.90;;;;;;5088398;28;20208;-69
2023/07/03 07:09:04;;;;;;;11.10;5.90;;;21.20;99.90;;;;;;5115673;22;20517;-69
2023/07/03 07:11:33;;;;;;;7.13;4.80;;;21.30;99.90;;;;;;5092353;28;20437;-68
2023/07/03 07:14:01;;;;;;;7.97;4.80;;;20.90;99.90;;;;;;5092058;28;20175;-69
2023/07/03 07:16:34;;;;;;;11.00;5.40;;;21.10;99.90;;;;;;5088782;28;20410;-69
2023/07/03 07:19:05;;;;;;;10.63;5.00;;;21.50;99.90;;;;;;5065575;28;20442;-68
2023/07/03 07:21:33;;;;;;;8.90;4.77;;;21.80;99.90;;;;;;5088947;28;20412;-68
2023/07/03 07:24:01;;;;;;;8.77;5.23;;;22.00;99.90;;;;;;5089901;28;20758;-69
2023/07/03 07:26:33;;;;;;;6.50;4.33;;;22.20;99.90;;;;;;5092201;28;20420;-68
2023/07/03 07:29:03;;;;;;;10.30;5.17;;;21.70;99.90;;;;;;5092396;28;20922;-70
2023/07/03 07:31:31;;;;;;;9.63;5.47;;;21.10;99.90;;;;;;5090421;28;20407;-70
2023/07/03 07:33:57;;;;;;;6.33;3.83;;;21.70;99.90;;;;;;5090757;28;20416;-68
2023/07/03 07:36:25;;;;;;;7.33;4.37;;;22.20;99.90;;;;;;5089279;28;20892;-68
2023/07/03 07:38:54;;;;;;;7.73;4.23;;;21.70;99.90;;;;;;5085740;28;20423;-67
2023/07/03 07:41:21;;;;;;;13.43;5.03;;;21.80;99.90;;;;;;5093781;28;20607;-69
2023/07/03 07:43:52;;;;;;;9.20;4.90;;;21.20;99.90;;;;;;5098228;28;20406;-69
2023/07/03 07:46:18;;;;;;;5.47;4.17;;;21.50;99.90;;;;;;5091032;28;20494;-69
2023/07/03 07:48:46;;;;;;;11.17;4.97;;;21.60;99.90;;;;;;5095463;28;20456;-68
2023/07/03 07:51:12;;;;;;;14.53;5.57;;;22.10;99.90;;;;;;5089012;28;20413;-68
2023/07/03 07:53:39;;;;;;;7.17;5.00;;;21.90;99.90;;;;;;5088092;28;20417;-69
2023/07/03 07:56:07;;;;;;;9.63;5.17;;;22.50;99.90;;;;;;5091375;28;20169;-68
2023/07/03 07:58:33;;;;;;;7.37;4.20;;;22.60;99.90;;;;;;5069527;28;20839;-68
2023/07/03 08:00:58;;;;;;;12.50;5.50;;;22.20;99.90;;;;;;5091425;28;20414;-70
2023/07/03 08:03:25;;;;;;;10.43;5.00;;;23.00;99.90;;;;;;5090913;28;20544;-69
2023/07/03 08:05:57;;;;;;;7.10;4.10;;;22.60;99.90;;;;;;5071064;28;20208;-69
2023/07/03 08:08:23;;;;;;;10.57;4.53;;;23.50;99.90;;;;;;5088725;28;20826;-67
2023/07/03 08:10:55;;;;;;;7.30;4.90;;;24.00;99.90;;;;;;5098132;28;20407;-68
2023/07/03 08:13:21;;;;;;;8.93;4.43;;;24.10;99.90;;;;;;5102819;28;20170;-68
2023/07/03 08:15:47;;;;;;;11.60;4.63;;;23.40;99.90;;;;;;5090473;28;20867;-68
2023/07/03 08:18:15;;;;;;;8.90;4.57;;;22.90;99.90;;;;;;5095423;28;20508;-68
2023/07/03 08:20:41;;;;;;;9.03;4.50;;;23.30;99.90;;;;;;5072894;28;20655;-69
2023/07/03 08:23:06;;;;;;;12.03;5.10;;;23.40;99.90;;;;;;5095621;28;20494;-69
2023/07/03 08:25:32;;;;;;;6.50;4.13;;;23.80;99.90;;;;;;5100454;28;20416;-68
2023/07/03 08:27:58;;;;;;;6.50;4.37;;;24.00;99.90;;;;;;5075320;28;20483;-69
2023/07/03 08:30:23;;;;;;;11.43;6.00;;;24.10;99.90;;;;;;5094863;28;20177;-69
2023/07/03 08:32:49;;;;;;;9.37;4.03;;;23.80;99.90;;;;;;5091416;28;20583;-69
2023/07/03 08:35:16;;;;;;;5.43;3.47;;;23.30;99.90;;;;;;5100788;28;20632;-70
2023/07/03 08:37:42;;;;;;;6.67;3.20;;;23.20;99.90;;;;;;5090716;28;20196;-70
2023/07/03 08:40:09;;;;;;;8.57;5.17;;;23.00;99.90;;;;;;5078847;28;20480;-69
2023/07/03 08:42:58;;;;;;;7.70;3.77;;;23.00;99.90;;;;;;5094656;28;20417;-71
2023/07/03 08:45:46;;;;;;;6.67;4.30;;;23.60;99.90;;;;;;5074149;28;20541;-70
2023/07/03 08:48:24;;;;;;;7.00;3.87;;;24.40;99.90;;;;;;5084285;28;20517;-70
2023/07/03 08:50:57;;;;;;;7.60;4.00;;;24.60;99.90;;;;;;5099617;28;20412;-70
2023/07/03 08:53:33;;;;;;;10.93;4.30;;;25.00;99.90;;;;;;5089551;28;20424;-70
2023/07/03 08:56:14;;;;;;;6.73;4.80;;;24.60;99.90;;;;;;5096351;28;20435;-70
2023/07/03 08:58:40;;;;;;;4.57;4.10;;;25.30;99.90;;;;;;5100783;28;20472;-70
2023/07/03 09:01:17;;;;;;;7.10;3.83;;;24.20;96.10;;;;;;5090243;28;20943;-69
2023/07/03 09:04:16;;;;;;;6.37;4.00;;;25.40;97.10;;;;;;5092177;28;20447;-69
2023/07/03 09:06:57;;;;;;;6.00;3.30;;;25.50;96.30;;;;;;5091391;28;20412;-69
2023/07/03 09:09:34;;;;;;;6.50;3.87;;;26.30;97.10;;;;;;5080364;28;20811;-68
2023/07/03 09:12:25;;;;;;;5.90;3.80;;;25.60;96.60;;;;;;5087384;28;20393;-68
2023/07/03 09:15:06;;;;;;;7.93;3.60;;;25.50;95.60;;;;;;5093008;28;20931;-68
2023/07/03 09:17:34;;;;;;;7.20;4.23;;;25.80;96.30;;;;;;5101665;28;20465;-69
2023/07/03 09:20:01;;;;;;;6.33;4.23;;;26.20;96.90;;;;;;5088103;28;20904;-68
2023/07/03 09:22:46;;;;;;;8.00;4.10;;;26.20;95.00;;;;;;5077841;28;20423;-69
2023/07/03 09:25:42;;;;;;;7.23;4.03;;;26.20;93.60;;;;;;5088887;28;20437;-68
2023/07/03 09:28:11;;;;;;;8.70;3.97;;;26.00;93.10;;;;;;5088934;28;20507;-68
2023/07/03 09:30:38;;;;;;;9.23;4.07;;;26.50;93.70;;;;;;5097293;28;20422;-68
2023/07/03 09:33:06;;;;;;;4.80;3.33;;;26.50;92.10;;;;;;5090286;28;20416;-68
2023/07/03 09:35:39;;;;;;;4.67;3.27;;;26.40;90.10;;;;;;5093487;28;20458;-69
2023/07/03 09:38:11;;;;;;;4.93;3.20;;;25.70;90.70;;;;;;5087795;28;20428;-68
2023/07/03 09:40:39;;;;;;;8.40;4.10;;;24.80;90.40;;;;;;5092727;28;20414;-69
2023/07/03 09:43:19;;;;;;;7.40;3.57;;;24.20;92.00;;;;;;5089394;28;20416;-68
2023/07/03 09:45:45;;;;;;;5.97;2.90;;;25.10;90.90;;;;;;5098119;28;20415;-69
2023/07/03 09:48:23;;;;;;;10.03;3.90;;;24.50;90.90;;;;;;5088962;28;20468;-68
2023/07/03 09:50:49;;;;;;;5.20;3.57;;;24.20;90.60;;;;;;5096741;28;20413;-70
2023/07/03 09:53:22;;;;;;;5.37;2.80;;;23.50;90.10;;;;;;5087849;28;20800;-69
2023/07/03 09:55:56;;;;;;;6.60;3.57;;;23.90;90.00;;;;;;5088321;28;20177;-69
2023/07/03 09:58:25;;;;;;;4.70;2.90;;;23.80;90.40;;;;;;5099868;28;20427;-68
2023/07/03 10:00:54;;;;;;;7.17;2.97;;;24.00;90.80;;;;;;5092451;28;20451;-68
2023/07/03 10:03:31;;;;;;;5.10;2.93;;;24.50;90.90;;;;;;5098158;28;20449;-68
2023/07/03 10:06:14;;;;;;;7.27;2.70;;;24.70;90.50;;;;;;5087465;28;20414;-69
2023/07/03 10:08:51;;;;;;;4.00;3.20;;;24.10;90.50;;;;;;5071907;28;20459;-69
2023/07/03 10:11:24;;;;;;;6.67;3.33;;;24.20;90.80;;;;;;5089874;28;20511;-69
2023/07/03 10:13:53;;;;;;;6.67;4.10;;;24.30;90.20;;;;;;5089827;28;20826;-69
2023/07/03 10:16:23;;;;;;;8.17;3.40;;;23.90;91.60;;;;;;5081851;28;20473;-68
2023/07/03 10:18:52;;;;;;;8.40;4.53;;;24.00;90.50;;;;;;5090779;28;20438;-69
2023/07/03 10:21:20;;;;;;;5.60;3.50;;;24.00;91.10;;;;;;5089040;28;20843;-71
2023/07/03 10:23:48;;;;;;;4.83;2.80;;;23.90;91.10;;;;;;5091909;28;20419;-71
2023/07/03 10:26:28;;;;;;;6.30;3.33;;;23.60;91.10;;;;;;5074906;28;20792;-69
2023/07/03 10:29:05;;;;;;;8.00;4.40;;;23.30;91.00;;;;;;5092803;28;20431;-69
2023/07/03 10:31:40;;;;;;;4.50;2.80;;;23.20;92.00;;;;;;5091904;28;20399;-71
2023/07/03 10:34:16;;;;;;;12.73;3.00;;;23.10;91.20;;;;;;5093742;28;20426;-70
2023/07/03 10:36:49;;;;;;;7.20;2.63;;;23.00;91.60;;;;;;5089803;28;20398;-69
2023/07/03 10:39:22;;;;;;;4.20;2.80;;;23.00;92.00;;;;;;5089907;28;20796;-69
2023/07/03 10:41:57;;;;;;;7.20;3.03;;;23.00;91.60;;;;;;5101220;28;20984;-70
2023/07/03 10:44:27;;;;;;;7.63;3.33;;;23.20;91.50;;;;;;5092582;28;20407;-70
2023/07/03 10:47:20;;;;;;;6.67;3.03;;;23.40;91.10;;;;;;5097481;28;20965;-69
2023/07/03 10:49:46;;;;;;;6.07;3.43;;;23.60;91.90;;;;;;5072003;28;21009;-69
2023/07/03 10:52:21;;;;;;;4.53;2.93;;;23.80;91.90;;;;;;5097462;28;20404;-69
2023/07/03 10:55:18;;;;;;;6.37;3.40;;;23.70;91.40;;;;;;5087471;28;20176;-70
2023/07/03 10:58:06;;;;;;;5.43;2.70;;;23.90;91.10;;;;;;5089446;28;20456;-70
2023/07/03 11:00:32;;;;;;;6.80;3.53;;;24.50;91.60;;;;;;5091625;28;20395;-68
2023/07/03 11:03:25;;;;;;;7.87;4.23;;;25.00;90.00;;;;;;5097486;28;20417;-68
2023/07/03 11:06:34;;;;;;;8.83;3.13;;;23.90;90.20;;;;;;5089920;28;20179;-68
2023/07/03 11:09:14;;;;;;;8.00;3.23;;;24.40;90.60;;;;;;5077195;28;20458;-69
2023/07/03 11:11:52;;;;;;;7.50;3.00;;;24.20;90.40;;;;;;5067275;28;20505;-69
2023/07/03 11:14:26;;;;;;;4.50;2.37;;;23.60;89.80;;;;;;5090030;28;20420;-69
2023/07/03 11:17:17;;;;;;;5.37;2.70;;;23.30;90.70;;;;;;5091968;28;20764;-70
2023/07/03 11:19:55;;;;;;;5.47;3.03;;;22.90;90.80;;;;;;5085881;28;20443;-69
2023/07/03 11:22:50;;;;;;;7.93;2.93;;;23.00;91.30;;;;;;5070465;28;20517;-69
2023/07/03 11:25:18;;;;;;;7.07;3.13;;;22.90;91.50;;;;;;5087530;28;20415;-68
2023/07/03 11:28:03;;;;;;;8.50;3.30;;;22.40;91.70;;;;;;5090093;28;20477;-69
2023/07/03 11:30:30;;;;;;;6.03;3.30;;;22.30;91.50;;;;;;5088548;28;20758;-68
2023/07/03 11:32:59;;;;;;;5.97;2.80;;;22.90;92.90;;;;;;5084138;28;20464;-69
2023/07/03 11:35:24;;;;;;;9.87;3.13;;;23.30;92.90;;;;;;5053714;28;20446;-69
2023/07/03 11:38:03;;;;;;;10.17;3.93;;;23.30;92.00;;;;;;5087932;28;20485;-69
2023/07/03 11:40:35;;;;;;;5.00;2.77;;;23.10;92.30;;;;;;5086457;28;20203;-69
2023/07/03 11:43:22;;;;;;;7.40;2.67;;;22.90;91.30;;;;;;5083046;28;20444;-69
2023/07/03 11:45:56;;;;;;;9.90;3.40;;;23.00;92.50;;;;;;5080993;28;20405;-70
2023/07/03 11:48:31;;;;;;;5.60;3.40;;;22.70;91.70;;;;;;5089120;28;20471;-71
2023/07/03 11:51:16;;;;;;;6.30;3.03;;;22.70;92.50;;;;;;5095231;28;20476;-69
2023/07/03 11:53:54;;;;;;;6.97;2.80;;;23.10;92.60;;;;;;5088151;28;20416;-69
2023/07/03 11:56:39;;;;;;;5.53;2.50;;;23.50;92.90;;;;;;5088253;28;20411;-69
2023/07/03 11:59:09;;;;;;;4.33;3.20;;;23.20;92.50;;;;;;5091016;28;20429;-69
2023/07/03 12:01:36;;;;;;;10.80;3.30;;;23.10;92.70;;;;;;5091680;28;20420;-70
2023/07/03 12:04:09;;;;;;;6.17;2.63;;;23.00;92.70;;;;;;5096847;28;20780;-69
2023/07/03 12:06:41;;;;;;;9.03;3.17;;;23.30;92.60;;;;;;5089720;28;20418;-70
2023/07/03 12:09:19;;;;;;;9.60;3.67;;;23.00;92.30;;;;;;5099761;28;20948;-69
2023/07/03 12:11:59;;;;;;;4.70;3.37;;;22.90;93.10;;;;;;5094421;28;20446;-70
2023/07/03 12:14:40;;;;;;;6.77;2.73;;;22.80;93.50;;;;;;5085848;28;20411;-70
2023/07/03 12:17:19;;;;;;;8.57;2.80;;;22.80;93.40;;;;;;5086131;28;20416;-69
2023/07/03 12:19:46;;;;;;;7.30;3.93;;;22.60;94.00;;;;;;5090122;28;20421;-71
2023/07/03 12:22:19;;;;;;;5.93;3.10;;;22.50;94.80;;;;;;5102891;28;20410;-70
2023/07/03 12:24:45;;;;;;;8.70;3.40;;;22.60;94.20;;;;;;5097941;28;20501;-70
2023/07/03 12:27:11;;;;;;;5.13;3.10;;;22.20;92.80;;;;;;5087025;28;20546;-69
2023/07/03 12:29:47;;;;;;;7.97;4.17;;;22.30;92.60;;;;;;5090439;28;20204;-69
2023/07/03 12:32:21;;;;;;;10.87;3.20;;;22.50;91.90;;;;;;5097831;28;20409;-69
2023/07/03 12:34:49;;;;;;;6.67;3.00;;;22.00;92.90;;;;;;5094919;28;20405;-69
2023/07/03 12:37:17;;;;;;;8.00;2.67;;;22.40;92.70;;;;;;5067034;28;20426;-68
2023/07/03 12:39:47;;;;;;;6.30;2.47;;;22.20;92.50;;;;;;5087002;28;20439;-69
2023/07/03 12:42:30;;;;;;;7.73;2.60;;;22.10;93.50;;;;;;5097667;28;20419;-69
2023/07/03 12:45:14;;;;;;;5.20;3.37;;;22.60;93.60;;;;;;5090514;28;20414;-68
2023/07/03 12:47:40;;;;;;;7.60;3.80;;;21.90;93.40;;;;;;5093748;28;20570;-68
2023/07/03 12:50:07;;;;;;;5.50;2.67;;;22.20;94.40;;;;;;5092071;28;20435;-70
2023/07/03 12:52:33;;;;;;;13.53;3.40;;;22.40;94.60;;;;;;5076264;28;20419;-68
2023/07/03 12:55:02;;;;;;;11.30;3.30;;;22.30;94.50;;;;;;5084124;28;20419;-68
2023/07/03 12:57:28;;;;;;;8.50;2.90;;;22.70;94.00;;;;;;5093291;28;20446;-68